sensor_id;sensor_type;location;lat;lon;timestamp;temperature;humidity
2409;DHT22;8463;48.094;7.970;2022-12-16T00:02:19;-1.50;66.90
2409;DHT22;8463;48.094;7.970;2022-12-16T00:04:44;-1.50;66.90
2409;DHT22;8463;48.094;7.970;2022-12-16T00:07:10;-1.40;67.00
2409;DHT22;8463;48.094;7.970;2022-12-16T00:09:35;-1.40;67.00
2409;DHT22;8463;48.094;7.970;2022-12-16T00:12:01;-1.40;67.00
2409;DHT22;8463;48.094;7.970;2022-12-16T00:14:27;-1.40;67.00
2409;DHT22;8463;48.094;7.970;2022-12-16T00:16:55;-1.40;67.00
2409;DHT22;8463;48.094;7.970;2022-12-16T00:19:20;-1.40;66.80
2409;DHT22;8463;48.094;7.970;2022-12-16T00:21:48;-1.40;66.90
2409;DHT22;8463;48.094;7.970;2022-12-16T00:24:14;-1.40;66.80
2409;DHT22;8463;48.094;7.970;2022-12-16T00:26:40;-1.40;66.80
2409;DHT22;8463;48.094;7.970;2022-12-16T00:29:05;-1.40;66.20
2409;DHT22;8463;48.094;7.970;2022-12-16T00:31:31;-0.80;66.60
2409;DHT22;8463;48.094;7.970;2022-12-16T00:33:57;-1.00;66.50
2409;DHT22;8463;48.094;7.970;2022-12-16T00:36:23;-1.30;66.40
2409;DHT22;8463;48.094;7.970;2022-12-16T00:38:51;-1.20;66.70
2409;DHT22;8463;48.094;7.970;2022-12-16T00:41:16;-0.70;66.40
2409;DHT22;8463;48.094;7.970;2022-12-16T00:43:42;-1.20;66.20
2409;DHT22;8463;48.094;7.970;2022-12-16T00:46:07;-1.10;66.60
2409;DHT22;8463;48.094;7.970;2022-12-16T00:48:35;-1.10;66.40
2409;DHT22;8463;48.094;7.970;2022-12-16T00:51:01;-1.00;66.60
2409;DHT22;8463;48.094;7.970;2022-12-16T00:53:27;-0.90;66.60
2409;DHT22;8463;48.094;7.970;2022-12-16T00:56:08;-0.90;66.50
2409;DHT22;8463;48.094;7.970;2022-12-16T00:58:35;-0.90;66.10
2409;DHT22;8463;48.094;7.970;2022-12-16T01:01:01;-0.80;66.30
2409;DHT22;8463;48.094;7.970;2022-12-16T01:03:27;-0.90;65.80
2409;DHT22;8463;48.094;7.970;2022-12-16T01:05:52;-1.00;64.20
2409;DHT22;8463;48.094;7.970;2022-12-16T01:08:18;-1.00;64.30
2409;DHT22;8463;48.094;7.970;2022-12-16T01:10:56;-1.00;64.30
2409;DHT22;8463;48.094;7.970;2022-12-16T01:13:23;-1.00;64.60
2409;DHT22;8463;48.094;7.970;2022-12-16T01:15:49;-1.00;64.10
2409;DHT22;8463;48.094;7.970;2022-12-16T01:18:15;-1.00;64.10
2409;DHT22;8463;48.094;7.970;2022-12-16T01:20:44;-1.10;63.20
2409;DHT22;8463;48.094;7.970;2022-12-16T01:23:09;-1.20;63.70
2409;DHT22;8463;48.094;7.970;2022-12-16T01:25:35;-1.20;64.10
2409;DHT22;8463;48.094;7.970;2022-12-16T01:28:01;-1.20;64.30
2409;DHT22;8463;48.094;7.970;2022-12-16T01:30:27;-1.30;64.60
2409;DHT22;8463;48.094;7.970;2022-12-16T01:32:53;-1.40;64.90
2409;DHT22;8463;48.094;7.970;2022-12-16T01:35:18;-1.40;66.20
2409;DHT22;8463;48.094;7.970;2022-12-16T01:37:44;-1.50;65.40
2409;DHT22;8463;48.094;7.970;2022-12-16T01:40:18;-1.50;66.40
2409;DHT22;8463;48.094;7.970;2022-12-16T01:42:44;-1.50;66.10
2409;DHT22;8463;48.094;7.970;2022-12-16T01:45:28;-1.40;66.10
2409;DHT22;8463;48.094;7.970;2022-12-16T01:47:56;-1.30;66.60
2409;DHT22;8463;48.094;7.970;2022-12-16T01:50:23;-1.50;66.30
2409;DHT22;8463;48.094;7.970;2022-12-16T01:52:55;-1.50;66.30
2409;DHT22;8463;48.094;7.970;2022-12-16T01:55:30;-1.50;66.30
2409;DHT22;8463;48.094;7.970;2022-12-16T01:58:01;-1.50;66.90
2409;DHT22;8463;48.094;7.970;2022-12-16T02:00:29;-1.50;66.80
2409;DHT22;8463;48.094;7.970;2022-12-16T02:02:56;-1.40;66.20
2409;DHT22;8463;48.094;7.970;2022-12-16T02:05:22;-0.50;66.80
2409;DHT22;8463;48.094;7.970;2022-12-16T02:08:16;-1.40;66.30
2409;DHT22;8463;48.094;7.970;2022-12-16T02:16:19;-1.50;65.60
2409;DHT22;8463;48.094;7.970;2022-12-16T02:28:16;-1.50;65.80
2409;DHT22;8463;48.094;7.970;2022-12-16T02:31:35;-1.50;65.80
2409;DHT22;8463;48.094;7.970;2022-12-16T02:36:40;-1.50;66.00
2409;DHT22;8463;48.094;7.970;2022-12-16T02:39:13;-1.50;65.90
2409;DHT22;8463;48.094;7.970;2022-12-16T02:42:04;-1.50;65.50
2409;DHT22;8463;48.094;7.970;2022-12-16T02:47:04;-1.50;66.20
2409;DHT22;8463;48.094;7.970;2022-12-16T02:51:59;-1.40;65.70
2409;DHT22;8463;48.094;7.970;2022-12-16T02:54:25;-1.40;65.80
2409;DHT22;8463;48.094;7.970;2022-12-16T02:57:24;-1.40;65.70
2409;DHT22;8463;48.094;7.970;2022-12-16T03:00:11;-1.40;65.60
2409;DHT22;8463;48.094;7.970;2022-12-16T03:05:19;-1.50;65.80
2409;DHT22;8463;48.094;7.970;2022-12-16T03:07:47;-1.50;65.80
2409;DHT22;8463;48.094;7.970;2022-12-16T03:10:16;-1.40;66.00
2409;DHT22;8463;48.094;7.970;2022-12-16T03:12:45;-1.40;65.90
2409;DHT22;8463;48.094;7.970;2022-12-16T03:15:29;-1.40;66.10
2409;DHT22;8463;48.094;7.970;2022-12-16T03:17:57;-1.40;65.80
2409;DHT22;8463;48.094;7.970;2022-12-16T03:20:42;-1.40;65.80
2409;DHT22;8463;48.094;7.970;2022-12-16T03:23:14;-1.50;65.20
2409;DHT22;8463;48.094;7.970;2022-12-16T03:25:43;-1.50;65.10
2409;DHT22;8463;48.094;7.970;2022-12-16T03:28:27;-1.50;65.10
2409;DHT22;8463;48.094;7.970;2022-12-16T03:31:03;-1.50;64.80
2409;DHT22;8463;48.094;7.970;2022-12-16T03:33:37;-1.50;65.20
2409;DHT22;8463;48.094;7.970;2022-12-16T03:36:11;-1.40;65.60
2409;DHT22;8463;48.094;7.970;2022-12-16T03:38:39;-1.40;64.90
2409;DHT22;8463;48.094;7.970;2022-12-16T03:41:06;-1.50;65.00
2409;DHT22;8463;48.094;7.970;2022-12-16T03:43:32;-1.50;65.20
2409;DHT22;8463;48.094;7.970;2022-12-16T03:46:02;-1.50;64.80
2409;DHT22;8463;48.094;7.970;2022-12-16T03:48:28;-1.50;65.70
2409;DHT22;8463;48.094;7.970;2022-12-16T03:50:55;-1.60;66.00
2409;DHT22;8463;48.094;7.970;2022-12-16T03:53:21;-1.60;66.00
2409;DHT22;8463;48.094;7.970;2022-12-16T03:55:50;-1.60;66.00
2409;DHT22;8463;48.094;7.970;2022-12-16T03:58:16;-1.50;66.40
2409;DHT22;8463;48.094;7.970;2022-12-16T04:00:42;-1.50;66.60
2409;DHT22;8463;48.094;7.970;2022-12-16T04:03:07;-1.40;67.00
2409;DHT22;8463;48.094;7.970;2022-12-16T04:05:33;-1.40;66.70
2409;DHT22;8463;48.094;7.970;2022-12-16T04:07:58;-1.50;66.00
2409;DHT22;8463;48.094;7.970;2022-12-16T04:10:24;-1.50;66.00
2409;DHT22;8463;48.094;7.970;2022-12-16T04:13:45;-1.50;66.10
2409;DHT22;8463;48.094;7.970;2022-12-16T04:16:29;-1.50;66.40
2409;DHT22;8463;48.094;7.970;2022-12-16T04:19:26;-1.50;66.00
2409;DHT22;8463;48.094;7.970;2022-12-16T04:22:19;-1.50;65.70
2409;DHT22;8463;48.094;7.970;2022-12-16T04:25:07;-1.60;65.90
2409;DHT22;8463;48.094;7.970;2022-12-16T04:27:34;-1.60;66.20
2409;DHT22;8463;48.094;7.970;2022-12-16T04:29:59;-1.60;66.00
2409;DHT22;8463;48.094;7.970;2022-12-16T04:32:48;-1.60;66.00
2409;DHT22;8463;48.094;7.970;2022-12-16T04:35:32;-1.60;66.20
2409;DHT22;8463;48.094;7.970;2022-12-16T04:38:16;-1.50;66.10
2409;DHT22;8463;48.094;7.970;2022-12-16T04:41:00;-1.50;66.40
2409;DHT22;8463;48.094;7.970;2022-12-16T04:43:44;-1.50;66.00
2409;DHT22;8463;48.094;7.970;2022-12-16T04:46:29;-1.50;65.80
2409;DHT22;8463;48.094;7.970;2022-12-16T04:49:16;-1.50;65.90
2409;DHT22;8463;48.094;7.970;2022-12-16T04:52:00;-1.50;65.40
2409;DHT22;8463;48.094;7.970;2022-12-16T04:54:44;-1.50;65.60
2409;DHT22;8463;48.094;7.970;2022-12-16T04:57:28;-1.50;65.70
2409;DHT22;8463;48.094;7.970;2022-12-16T05:00:12;-1.50;65.60
2409;DHT22;8463;48.094;7.970;2022-12-16T05:02:57;-1.50;65.70
2409;DHT22;8463;48.094;7.970;2022-12-16T05:05:41;-1.40;65.50
2409;DHT22;8463;48.094;7.970;2022-12-16T05:08:29;-1.50;65.20
2409;DHT22;8463;48.094;7.970;2022-12-16T05:11:13;-1.70;65.00
2409;DHT22;8463;48.094;7.970;2022-12-16T05:13:57;-1.60;65.80
2409;DHT22;8463;48.094;7.970;2022-12-16T05:16:41;-1.70;65.50
2409;DHT22;8463;48.094;7.970;2022-12-16T05:19:25;-1.70;66.20
2409;DHT22;8463;48.094;7.970;2022-12-16T05:22:09;-1.80;65.40
2409;DHT22;8463;48.094;7.970;2022-12-16T05:24:53;-1.70;66.00
2409;DHT22;8463;48.094;7.970;2022-12-16T05:27:37;-1.70;66.00
2409;DHT22;8463;48.094;7.970;2022-12-16T05:30:21;-1.70;65.80
2409;DHT22;8463;48.094;7.970;2022-12-16T05:33:05;-1.70;66.00
2409;DHT22;8463;48.094;7.970;2022-12-16T05:35:49;-1.60;66.80
2409;DHT22;8463;48.094;7.970;2022-12-16T05:38:33;-1.60;65.90
2409;DHT22;8463;48.094;7.970;2022-12-16T05:41:17;-1.60;65.90
2409;DHT22;8463;48.094;7.970;2022-12-16T05:44:01;-1.60;65.80
2409;DHT22;8463;48.094;7.970;2022-12-16T05:46:45;-1.60;65.50
2409;DHT22;8463;48.094;7.970;2022-12-16T05:49:29;-1.70;65.70
2409;DHT22;8463;48.094;7.970;2022-12-16T05:52:15;-1.60;65.70
2409;DHT22;8463;48.094;7.970;2022-12-16T05:54:59;-1.60;65.80
2409;DHT22;8463;48.094;7.970;2022-12-16T05:57:43;-1.50;65.40
2409;DHT22;8463;48.094;7.970;2022-12-16T06:00:27;-1.50;65.00
2409;DHT22;8463;48.094;7.970;2022-12-16T06:03:11;-1.50;65.20
2409;DHT22;8463;48.094;7.970;2022-12-16T06:05:55;-1.50;64.70
2409;DHT22;8463;48.094;7.970;2022-12-16T06:08:39;-1.60;65.30
2409;DHT22;8463;48.094;7.970;2022-12-16T06:11:23;-1.60;64.80
2409;DHT22;8463;48.094;7.970;2022-12-16T06:14:07;-1.60;65.10
2409;DHT22;8463;48.094;7.970;2022-12-16T06:16:51;-1.60;65.10
2409;DHT22;8463;48.094;7.970;2022-12-16T06:19:35;-1.60;64.90
2409;DHT22;8463;48.094;7.970;2022-12-16T06:22:19;-1.60;65.10
2409;DHT22;8463;48.094;7.970;2022-12-16T06:25:03;-1.60;65.40
2409;DHT22;8463;48.094;7.970;2022-12-16T06:27:51;-1.60;65.00
2409;DHT22;8463;48.094;7.970;2022-12-16T06:30:36;-1.60;64.70
2409;DHT22;8463;48.094;7.970;2022-12-16T06:33:20;-1.60;65.00
2409;DHT22;8463;48.094;7.970;2022-12-16T06:36:05;-1.60;64.70
2409;DHT22;8463;48.094;7.970;2022-12-16T06:38:49;-1.60;65.00
2409;DHT22;8463;48.094;7.970;2022-12-16T06:41:33;-1.70;65.40
2409;DHT22;8463;48.094;7.970;2022-12-16T06:44:17;-1.70;65.00
2409;DHT22;8463;48.094;7.970;2022-12-16T06:47:01;-1.70;65.10
2409;DHT22;8463;48.094;7.970;2022-12-16T06:49:45;-1.50;65.70
2409;DHT22;8463;48.094;7.970;2022-12-16T06:52:29;-0.90;68.20
2409;DHT22;8463;48.094;7.970;2022-12-16T06:55:13;-0.30;68.50
2409;DHT22;8463;48.094;7.970;2022-12-16T06:57:58;-0.80;64.60
2409;DHT22;8463;48.094;7.970;2022-12-16T07:00:42;-1.10;64.20
2409;DHT22;8463;48.094;7.970;2022-12-16T07:03:26;-1.20;63.90
2409;DHT22;8463;48.094;7.970;2022-12-16T07:06:10;-1.40;64.20
2409;DHT22;8463;48.094;7.970;2022-12-16T07:08:54;-1.50;64.20
2409;DHT22;8463;48.094;7.970;2022-12-16T07:11:38;-1.60;64.70
2409;DHT22;8463;48.094;7.970;2022-12-16T07:14:23;-1.50;65.10
2409;DHT22;8463;48.094;7.970;2022-12-16T07:17:07;-1.60;64.60
2409;DHT22;8463;48.094;7.970;2022-12-16T07:19:51;-1.60;65.50
2409;DHT22;8463;48.094;7.970;2022-12-16T07:22:35;-1.70;65.30
2409;DHT22;8463;48.094;7.970;2022-12-16T07:25:19;-1.70;65.60
2409;DHT22;8463;48.094;7.970;2022-12-16T07:28:03;-1.70;65.60
2409;DHT22;8463;48.094;7.970;2022-12-16T07:30:48;-1.70;65.70
2409;DHT22;8463;48.094;7.970;2022-12-16T07:33:32;-1.60;65.60
2409;DHT22;8463;48.094;7.970;2022-12-16T07:36:16;-1.60;65.70
2409;DHT22;8463;48.094;7.970;2022-12-16T07:39:00;-1.60;65.60
2409;DHT22;8463;48.094;7.970;2022-12-16T07:41:44;-1.70;65.20
2409;DHT22;8463;48.094;7.970;2022-12-16T07:44:28;-1.70;65.30
2409;DHT22;8463;48.094;7.970;2022-12-16T07:47:12;-1.60;65.80
2409;DHT22;8463;48.094;7.970;2022-12-16T07:49:56;-1.60;65.50
2409;DHT22;8463;48.094;7.970;2022-12-16T07:52:40;-1.60;65.50
2409;DHT22;8463;48.094;7.970;2022-12-16T07:55:23;-1.60;65.00
2409;DHT22;8463;48.094;7.970;2022-12-16T07:58:08;-1.60;65.10
2409;DHT22;8463;48.094;7.970;2022-12-16T08:00:53;-1.60;64.60
2409;DHT22;8463;48.094;7.970;2022-12-16T08:03:37;-1.50;65.10
2409;DHT22;8463;48.094;7.970;2022-12-16T08:06:28;-1.50;64.80
2409;DHT22;8463;48.094;7.970;2022-12-16T08:09:12;-1.40;64.80
2409;DHT22;8463;48.094;7.970;2022-12-16T08:11:57;-1.40;64.50
2409;DHT22;8463;48.094;7.970;2022-12-16T08:14:41;-1.40;64.60
2409;DHT22;8463;48.094;7.970;2022-12-16T08:17:25;-1.30;64.60
2409;DHT22;8463;48.094;7.970;2022-12-16T08:20:28;-1.30;64.00
2409;DHT22;8463;48.094;7.970;2022-12-16T08:23:12;-1.40;63.50
2409;DHT22;8463;48.094;7.970;2022-12-16T08:25:56;-1.40;64.00
2409;DHT22;8463;48.094;7.970;2022-12-16T08:28:40;-1.40;64.30
2409;DHT22;8463;48.094;7.970;2022-12-16T08:31:24;-1.30;64.10
2409;DHT22;8463;48.094;7.970;2022-12-16T08:34:09;-1.30;63.60
2409;DHT22;8463;48.094;7.970;2022-12-16T08:36:53;-1.30;64.40
2409;DHT22;8463;48.094;7.970;2022-12-16T08:39:37;-1.20;63.80
2409;DHT22;8463;48.094;7.970;2022-12-16T08:42:21;-1.20;63.50
2409;DHT22;8463;48.094;7.970;2022-12-16T08:45:19;-1.30;63.30
2409;DHT22;8463;48.094;7.970;2022-12-16T08:48:04;-1.30;63.90
2409;DHT22;8463;48.094;7.970;2022-12-16T08:50:48;-1.40;63.60
2409;DHT22;8463;48.094;7.970;2022-12-16T08:53:32;-1.50;64.20
2409;DHT22;8463;48.094;7.970;2022-12-16T08:56:16;-1.50;64.00
2409;DHT22;8463;48.094;7.970;2022-12-16T08:59:00;-1.40;64.20
2409;DHT22;8463;48.094;7.970;2022-12-16T09:01:44;-1.40;63.80
2409;DHT22;8463;48.094;7.970;2022-12-16T09:04:29;-1.30;64.30
2409;DHT22;8463;48.094;7.970;2022-12-16T09:07:17;-1.30;63.80
2409;DHT22;8463;48.094;7.970;2022-12-16T09:10:02;-1.30;63.30
2409;DHT22;8463;48.094;7.970;2022-12-16T09:12:47;-1.40;63.30
2409;DHT22;8463;48.094;7.970;2022-12-16T09:15:31;-1.40;63.30
2409;DHT22;8463;48.094;7.970;2022-12-16T09:18:15;-1.40;63.30
2409;DHT22;8463;48.094;7.970;2022-12-16T09:20:59;-1.40;63.10
2409;DHT22;8463;48.094;7.970;2022-12-16T09:23:44;-1.30;63.30
2409;DHT22;8463;48.094;7.970;2022-12-16T09:26:29;-1.40;63.30
2409;DHT22;8463;48.094;7.970;2022-12-16T09:29:13;-1.30;63.40
2409;DHT22;8463;48.094;7.970;2022-12-16T09:31:57;-1.20;62.80
2409;DHT22;8463;48.094;7.970;2022-12-16T09:34:43;-1.30;62.60
2409;DHT22;8463;48.094;7.970;2022-12-16T09:37:27;-1.30;61.60
2409;DHT22;8463;48.094;7.970;2022-12-16T09:40:13;-1.40;62.70
2409;DHT22;8463;48.094;7.970;2022-12-16T09:51:55;-1.50;63.00
2409;DHT22;8463;48.094;7.970;2022-12-16T09:54:41;-1.50;63.20
2409;DHT22;8463;48.094;7.970;2022-12-16T09:57:28;-1.50;63.20
2409;DHT22;8463;48.094;7.970;2022-12-16T10:00:20;-1.50;62.70
2409;DHT22;8463;48.094;7.970;2022-12-16T10:03:20;-1.50;63.20
2409;DHT22;8463;48.094;7.970;2022-12-16T10:12:27;-1.50;61.90
2409;DHT22;8463;48.094;7.970;2022-12-16T10:25:14;-1.30;61.10
2409;DHT22;8463;48.094;7.970;2022-12-16T10:30:50;-1.20;60.90
2409;DHT22;8463;48.094;7.970;2022-12-16T10:33:34;-1.20;60.80
2409;DHT22;8463;48.094;7.970;2022-12-16T10:36:21;-1.10;61.70
2409;DHT22;8463;48.094;7.970;2022-12-16T10:39:39;-1.10;59.80
2409;DHT22;8463;48.094;7.970;2022-12-16T10:42:34;-1.20;59.50
2409;DHT22;8463;48.094;7.970;2022-12-16T10:45:26;-1.30;59.60
2409;DHT22;8463;48.094;7.970;2022-12-16T10:48:12;-1.30;59.80
2409;DHT22;8463;48.094;7.970;2022-12-16T10:50:58;-1.40;59.50
2409;DHT22;8463;48.094;7.970;2022-12-16T10:53:45;-1.30;59.70
2409;DHT22;8463;48.094;7.970;2022-12-16T10:59:19;-1.40;59.50
2409;DHT22;8463;48.094;7.970;2022-12-16T11:02:17;-1.40;60.40
2409;DHT22;8463;48.094;7.970;2022-12-16T11:08:32;-1.50;60.30
2409;DHT22;8463;48.094;7.970;2022-12-16T11:11:25;-1.20;60.90
2409;DHT22;8463;48.094;7.970;2022-12-16T11:14:30;-1.10;58.80
2409;DHT22;8463;48.094;7.970;2022-12-16T11:17:25;-1.20;57.40
2409;DHT22;8463;48.094;7.970;2022-12-16T11:20:13;-1.20;58.20
2409;DHT22;8463;48.094;7.970;2022-12-16T11:34:50;-1.40;59.50
2409;DHT22;8463;48.094;7.970;2022-12-16T11:37:36;-1.20;60.40
2409;DHT22;8463;48.094;7.970;2022-12-16T11:40:21;-1.20;58.80
2409;DHT22;8463;48.094;7.970;2022-12-16T11:43:07;-1.20;59.70
2409;DHT22;8463;48.094;7.970;2022-12-16T11:45:52;-1.10;58.70
2409;DHT22;8463;48.094;7.970;2022-12-16T11:48:43;-1.10;59.10
2409;DHT22;8463;48.094;7.970;2022-12-16T11:51:32;-1.10;59.80
2409;DHT22;8463;48.094;7.970;2022-12-16T11:54:24;-1.10;59.80
2409;DHT22;8463;48.094;7.970;2022-12-16T11:57:36;-1.00;59.30
2409;DHT22;8463;48.094;7.970;2022-12-16T12:00:22;-0.90;59.00
2409;DHT22;8463;48.094;7.970;2022-12-16T12:03:10;-0.90;58.40
2409;DHT22;8463;48.094;7.970;2022-12-16T12:12:04;-0.70;57.70
2409;DHT22;8463;48.094;7.970;2022-12-16T12:21:24;-0.70;58.00
2409;DHT22;8463;48.094;7.970;2022-12-16T12:28:20;-0.80;58.00
2409;DHT22;8463;48.094;7.970;2022-12-16T12:31:05;-0.80;58.80
2409;DHT22;8463;48.094;7.970;2022-12-16T12:40:37;-0.90;60.00
2409;DHT22;8463;48.094;7.970;2022-12-16T12:46:51;-1.10;59.80
2409;DHT22;8463;48.094;7.970;2022-12-16T12:49:38;-1.20;59.70
2409;DHT22;8463;48.094;7.970;2022-12-16T12:58:45;-1.20;59.70
2409;DHT22;8463;48.094;7.970;2022-12-16T13:01:31;-1.20;59.70
2409;DHT22;8463;48.094;7.970;2022-12-16T13:04:20;-1.10;59.80
2409;DHT22;8463;48.094;7.970;2022-12-16T13:07:05;-1.00;60.20
2409;DHT22;8463;48.094;7.970;2022-12-16T13:10:10;-0.90;58.40
2409;DHT22;8463;48.094;7.970;2022-12-16T13:15:58;-1.00;58.20
2409;DHT22;8463;48.094;7.970;2022-12-16T13:18:42;0.20;60.00
2409;DHT22;8463;48.094;7.970;2022-12-16T13:27:16;-1.00;59.80
2409;DHT22;8463;48.094;7.970;2022-12-16T13:33:19;-1.00;58.70
2409;DHT22;8463;48.094;7.970;2022-12-16T13:36:05;-1.10;59.20
2409;DHT22;8463;48.094;7.970;2022-12-16T13:38:55;-1.20;59.40
2409;DHT22;8463;48.094;7.970;2022-12-16T13:53:27;-0.90;60.90
2409;DHT22;8463;48.094;7.970;2022-12-16T13:56:16;-0.80;60.50
2409;DHT22;8463;48.094;7.970;2022-12-16T13:59:13;-0.80;60.00
2409;DHT22;8463;48.094;7.970;2022-12-16T14:02:29;-0.80;60.00
2409;DHT22;8463;48.094;7.970;2022-12-16T14:05:22;-0.80;59.70
2409;DHT22;8463;48.094;7.970;2022-12-16T14:08:13;-0.90;60.00
2409;DHT22;8463;48.094;7.970;2022-12-16T14:11:02;-1.00;60.80
2409;DHT22;8463;48.094;7.970;2022-12-16T14:13:54;-1.00;61.40
2409;DHT22;8463;48.094;7.970;2022-12-16T14:16:59;-1.00;61.70
2409;DHT22;8463;48.094;7.970;2022-12-16T14:20:06;-1.10;61.20
2409;DHT22;8463;48.094;7.970;2022-12-16T14:25:58;-1.20;59.90
2409;DHT22;8463;48.094;7.970;2022-12-16T14:28:45;-1.20;61.00
2409;DHT22;8463;48.094;7.970;2022-12-16T14:37:17;-1.40;61.10
2409;DHT22;8463;48.094;7.970;2022-12-16T14:40:03;-1.50;60.70
2409;DHT22;8463;48.094;7.970;2022-12-16T14:42:50;-1.50;61.00
2409;DHT22;8463;48.094;7.970;2022-12-16T14:45:37;-1.60;61.10
2409;DHT22;8463;48.094;7.970;2022-12-16T14:48:34;-1.60;61.30
2409;DHT22;8463;48.094;7.970;2022-12-16T14:54:26;-1.50;61.10
2409;DHT22;8463;48.094;7.970;2022-12-16T14:57:16;-1.60;60.80
2409;DHT22;8463;48.094;7.970;2022-12-16T15:00:03;-1.70;61.70
2409;DHT22;8463;48.094;7.970;2022-12-16T15:02:49;-1.60;61.50
2409;DHT22;8463;48.094;7.970;2022-12-16T15:05:36;-1.60;60.90
2409;DHT22;8463;48.094;7.970;2022-12-16T15:08:21;-0.30;61.20
2409;DHT22;8463;48.094;7.970;2022-12-16T15:11:09;-1.60;61.10
2409;DHT22;8463;48.094;7.970;2022-12-16T15:13:57;-1.70;60.40
2409;DHT22;8463;48.094;7.970;2022-12-16T15:16:43;-1.70;60.70
2409;DHT22;8463;48.094;7.970;2022-12-16T15:19:31;-1.70;61.00
2409;DHT22;8463;48.094;7.970;2022-12-16T15:22:18;-1.70;61.00
2409;DHT22;8463;48.094;7.970;2022-12-16T15:25:03;-1.60;61.00
2409;DHT22;8463;48.094;7.970;2022-12-16T15:27:55;-1.60;61.50
2409;DHT22;8463;48.094;7.970;2022-12-16T15:30:44;-1.70;61.10
2409;DHT22;8463;48.094;7.970;2022-12-16T15:33:34;-1.70;61.20
2409;DHT22;8463;48.094;7.970;2022-12-16T15:36:29;-1.60;61.90
2409;DHT22;8463;48.094;7.970;2022-12-16T15:39:26;-1.70;61.50
2409;DHT22;8463;48.094;7.970;2022-12-16T15:42:26;-1.70;62.10
2409;DHT22;8463;48.094;7.970;2022-12-16T15:48:16;-1.60;61.90
2409;DHT22;8463;48.094;7.970;2022-12-16T15:51:02;-1.60;61.80
2409;DHT22;8463;48.094;7.970;2022-12-16T15:54:03;-1.60;61.50
2409;DHT22;8463;48.094;7.970;2022-12-16T15:56:47;-1.60;61.60
2409;DHT22;8463;48.094;7.970;2022-12-16T15:59:34;-1.70;61.30
2409;DHT22;8463;48.094;7.970;2022-12-16T16:02:22;-1.60;61.70
2409;DHT22;8463;48.094;7.970;2022-12-16T16:05:17;-1.60;61.80
2409;DHT22;8463;48.094;7.970;2022-12-16T16:08:02;-1.60;62.10
2409;DHT22;8463;48.094;7.970;2022-12-16T16:10:47;-1.50;62.10
2409;DHT22;8463;48.094;7.970;2022-12-16T16:13:31;-1.50;62.10
2409;DHT22;8463;48.094;7.970;2022-12-16T16:16:15;-1.50;61.70
2409;DHT22;8463;48.094;7.970;2022-12-16T16:19:00;-1.50;61.60
2409;DHT22;8463;48.094;7.970;2022-12-16T16:21:44;-1.50;61.30
2409;DHT22;8463;48.094;7.970;2022-12-16T16:24:28;-1.60;61.40
2409;DHT22;8463;48.094;7.970;2022-12-16T16:27:14;-1.60;62.30
2409;DHT22;8463;48.094;7.970;2022-12-16T16:29:58;-1.60;62.20
2409;DHT22;8463;48.094;7.970;2022-12-16T16:32:43;-1.60;62.30
2409;DHT22;8463;48.094;7.970;2022-12-16T16:35:30;-1.60;62.50
2409;DHT22;8463;48.094;7.970;2022-12-16T16:38:15;-1.60;62.90
2409;DHT22;8463;48.094;7.970;2022-12-16T16:41:14;-1.60;63.10
2409;DHT22;8463;48.094;7.970;2022-12-16T16:43:58;-1.60;63.00
2409;DHT22;8463;48.094;7.970;2022-12-16T16:46:45;-1.60;62.20
2409;DHT22;8463;48.094;7.970;2022-12-16T16:49:31;-1.60;62.40
2409;DHT22;8463;48.094;7.970;2022-12-16T16:52:21;-1.60;62.50
2409;DHT22;8463;48.094;7.970;2022-12-16T16:55:07;-1.60;62.20
2409;DHT22;8463;48.094;7.970;2022-12-16T16:57:55;-1.50;63.20
2409;DHT22;8463;48.094;7.970;2022-12-16T17:00:40;-1.50;62.80
2409;DHT22;8463;48.094;7.970;2022-12-16T17:03:26;-1.50;62.80
2409;DHT22;8463;48.094;7.970;2022-12-16T17:06:10;-0.90;62.80
2409;DHT22;8463;48.094;7.970;2022-12-16T17:08:54;-1.50;62.20
2409;DHT22;8463;48.094;7.970;2022-12-16T17:11:38;-1.50;62.80
2409;DHT22;8463;48.094;7.970;2022-12-16T17:14:23;-1.50;62.80
2409;DHT22;8463;48.094;7.970;2022-12-16T17:17:08;-1.50;62.60
2409;DHT22;8463;48.094;7.970;2022-12-16T17:19:52;-1.50;62.70
2409;DHT22;8463;48.094;7.970;2022-12-16T17:22:40;-1.40;63.20
2409;DHT22;8463;48.094;7.970;2022-12-16T17:25:24;-1.30;63.30
2409;DHT22;8463;48.094;7.970;2022-12-16T17:28:08;-1.20;63.00
2409;DHT22;8463;48.094;7.970;2022-12-16T17:30:56;-1.30;62.00
2409;DHT22;8463;48.094;7.970;2022-12-16T17:33:40;-1.30;61.60
2409;DHT22;8463;48.094;7.970;2022-12-16T17:36:25;-1.30;61.60
2409;DHT22;8463;48.094;7.970;2022-12-16T17:39:10;-1.30;61.00
2409;DHT22;8463;48.094;7.970;2022-12-16T17:41:54;-1.30;61.50
2409;DHT22;8463;48.094;7.970;2022-12-16T17:44:38;-1.40;61.40
2409;DHT22;8463;48.094;7.970;2022-12-16T17:47:22;-1.30;61.60
2409;DHT22;8463;48.094;7.970;2022-12-16T17:50:07;-1.40;62.10
2409;DHT22;8463;48.094;7.970;2022-12-16T17:52:55;-1.50;62.50
2409;DHT22;8463;48.094;7.970;2022-12-16T17:55:39;-1.50;62.80
2409;DHT22;8463;48.094;7.970;2022-12-16T17:58:34;-1.50;63.10
2409;DHT22;8463;48.094;7.970;2022-12-16T18:01:19;-1.50;63.20
2409;DHT22;8463;48.094;7.970;2022-12-16T18:04:03;-1.50;63.20
2409;DHT22;8463;48.094;7.970;2022-12-16T18:06:47;-1.50;63.20
2409;DHT22;8463;48.094;7.970;2022-12-16T18:09:31;-1.50;63.20
2409;DHT22;8463;48.094;7.970;2022-12-16T18:12:15;-1.60;63.10
2409;DHT22;8463;48.094;7.970;2022-12-16T18:15:00;-1.50;63.20
2409;DHT22;8463;48.094;7.970;2022-12-16T18:17:47;-1.50;63.50
2409;DHT22;8463;48.094;7.970;2022-12-16T18:20:32;-1.40;64.00
2409;DHT22;8463;48.094;7.970;2022-12-16T18:23:17;-1.30;64.10
2409;DHT22;8463;48.094;7.970;2022-12-16T18:26:04;-1.20;64.40
2409;DHT22;8463;48.094;7.970;2022-12-16T18:28:48;-1.10;64.50
2409;DHT22;8463;48.094;7.970;2022-12-16T18:31:32;-1.00;64.50
2409;DHT22;8463;48.094;7.970;2022-12-16T18:34:17;-1.00;64.50
2409;DHT22;8463;48.094;7.970;2022-12-16T18:37:04;-0.90;64.50
2409;DHT22;8463;48.094;7.970;2022-12-16T18:40:04;-0.90;64.00
2409;DHT22;8463;48.094;7.970;2022-12-16T18:43:02;-1.00;63.30
2409;DHT22;8463;48.094;7.970;2022-12-16T18:46:09;-0.90;63.30
2409;DHT22;8463;48.094;7.970;2022-12-16T18:48:55;-0.90;62.50
2409;DHT22;8463;48.094;7.970;2022-12-16T18:51:39;-1.00;60.90
2409;DHT22;8463;48.094;7.970;2022-12-16T18:54:23;-1.00;60.90
2409;DHT22;8463;48.094;7.970;2022-12-16T18:57:07;-1.00;61.30
2409;DHT22;8463;48.094;7.970;2022-12-16T18:59:51;-1.00;61.20
2409;DHT22;8463;48.094;7.970;2022-12-16T19:02:35;-1.00;60.70
2409;DHT22;8463;48.094;7.970;2022-12-16T19:05:19;-1.10;59.90
2409;DHT22;8463;48.094;7.970;2022-12-16T19:08:03;-1.20;59.70
2409;DHT22;8463;48.094;7.970;2022-12-16T19:10:47;-1.30;60.30
2409;DHT22;8463;48.094;7.970;2022-12-16T19:13:32;-1.20;61.40
2409;DHT22;8463;48.094;7.970;2022-12-16T19:16:16;-1.20;61.70
2409;DHT22;8463;48.094;7.970;2022-12-16T19:19:00;-1.10;62.10
2409;DHT22;8463;48.094;7.970;2022-12-16T19:21:45;-1.10;61.40
2409;DHT22;8463;48.094;7.970;2022-12-16T19:24:29;-1.10;61.40
2409;DHT22;8463;48.094;7.970;2022-12-16T19:27:14;-1.10;60.90
2409;DHT22;8463;48.094;7.970;2022-12-16T19:29:58;-1.10;61.00
2409;DHT22;8463;48.094;7.970;2022-12-16T19:32:46;-1.10;61.20
2409;DHT22;8463;48.094;7.970;2022-12-16T19:35:30;-1.10;61.10
2409;DHT22;8463;48.094;7.970;2022-12-16T19:38:14;-1.10;60.60
2409;DHT22;8463;48.094;7.970;2022-12-16T19:40:58;-1.10;60.60
2409;DHT22;8463;48.094;7.970;2022-12-16T19:43:42;-1.10;60.00
2409;DHT22;8463;48.094;7.970;2022-12-16T19:46:27;-1.30;59.60
2409;DHT22;8463;48.094;7.970;2022-12-16T19:49:10;-1.40;59.50
2409;DHT22;8463;48.094;7.970;2022-12-16T19:51:55;-1.40;60.70
2409;DHT22;8463;48.094;7.970;2022-12-16T19:54:38;-1.30;61.10
2409;DHT22;8463;48.094;7.970;2022-12-16T19:57:22;-1.20;61.40
2409;DHT22;8463;48.094;7.970;2022-12-16T20:00:08;-1.20;61.40
2409;DHT22;8463;48.094;7.970;2022-12-16T20:02:53;-1.10;61.30
2409;DHT22;8463;48.094;7.970;2022-12-16T20:05:39;-1.10;60.90
2409;DHT22;8463;48.094;7.970;2022-12-16T20:08:23;-1.10;59.80